sensor_id;sensor_type;location;lat;lon;timestamp;P1;durP1;ratioP1;P2;durP2;ratioP2
1759;SDS011;877;46.266;20.062;2023-11-19T00:02:06;12.75;;;8.10;;
1759;SDS011;877;46.266;20.062;2023-11-19T00:04:36;14.27;;;9.00;;
1759;SDS011;877;46.266;20.062;2023-11-19T00:07:04;11.00;;;7.30;;
1759;SDS011;877;46.266;20.062;2023-11-19T00:09:33;14.85;;;9.32;;
1759;SDS011;877;46.266;20.062;2023-11-19T00:12:02;14.98;;;9.27;;
1759;SDS011;877;46.266;20.062;2023-11-19T00:14:31;15.10;;;8.65;;
1759;SDS011;877;46.266;20.062;2023-11-19T00:16:57;14.35;;;9.27;;
1759;SDS011;877;46.266;20.062;2023-11-19T00:19:23;14.50;;;9.02;;
1759;SDS011;877;46.266;20.062;2023-11-19T00:21:49;14.95;;;8.70;;
1759;SDS011;877;46.266;20.062;2023-11-19T00:24:16;12.35;;;8.02;;
1759;SDS011;877;46.266;20.062;2023-11-19T00:26:43;14.73;;;8.77;;
1759;SDS011;877;46.266;20.062;2023-11-19T00:29:09;12.25;;;7.80;;
1759;SDS011;877;46.266;20.062;2023-11-19T00:31:36;14.85;;;8.35;;
1759;SDS011;877;46.266;20.062;2023-11-19T00:34:03;15.75;;;9.68;;
1759;SDS011;877;46.266;20.062;2023-11-19T00:36:32;13.23;;;7.57;;
1759;SDS011;877;46.266;20.062;2023-11-19T00:38:59;13.15;;;8.23;;
1759;SDS011;877;46.266;20.062;2023-11-19T00:41:26;12.25;;;7.88;;
1759;SDS011;877;46.266;20.062;2023-11-19T00:43:53;12.30;;;7.85;;
1759;SDS011;877;46.266;20.062;2023-11-19T00:46:20;12.98;;;7.82;;
1759;SDS011;877;46.266;20.062;2023-11-19T00:48:46;12.23;;;7.78;;
1759;SDS011;877;46.266;20.062;2023-11-19T00:51:18;12.55;;;8.23;;
1759;SDS011;877;46.266;20.062;2023-11-19T00:53:45;14.50;;;8.60;;
1759;SDS011;877;46.266;20.062;2023-11-19T00:56:12;10.13;;;6.93;;
1759;SDS011;877;46.266;20.062;2023-11-19T00:58:40;11.30;;;7.78;;
1759;SDS011;877;46.266;20.062;2023-11-19T01:01:06;14.45;;;7.90;;
1759;SDS011;877;46.266;20.062;2023-11-19T01:03:32;14.88;;;7.90;;
1759;SDS011;877;46.266;20.062;2023-11-19T01:05:59;13.45;;;8.25;;
1759;SDS011;877;46.266;20.062;2023-11-19T01:08:29;13.90;;;8.57;;
1759;SDS011;877;46.266;20.062;2023-11-19T01:10:55;14.82;;;8.75;;
1759;SDS011;877;46.266;20.062;2023-11-19T01:13:21;17.77;;;10.90;;
1759;SDS011;877;46.266;20.062;2023-11-19T01:15:47;16.60;;;9.65;;
1759;SDS011;877;46.266;20.062;2023-11-19T01:18:15;13.85;;;9.15;;
1759;SDS011;877;46.266;20.062;2023-11-19T01:20:41;13.15;;;8.18;;
1759;SDS011;877;46.266;20.062;2023-11-19T01:23:09;14.25;;;8.30;;
1759;SDS011;877;46.266;20.062;2023-11-19T01:25:35;13.75;;;8.88;;
1759;SDS011;877;46.266;20.062;2023-11-19T01:28:04;15.77;;;9.57;;
1759;SDS011;877;46.266;20.062;2023-11-19T01:30:30;12.80;;;8.15;;
1759;SDS011;877;46.266;20.062;2023-11-19T01:32:56;14.25;;;9.10;;
1759;SDS011;877;46.266;20.062;2023-11-19T01:35:23;13.32;;;9.10;;
1759;SDS011;877;46.266;20.062;2023-11-19T01:37:50;16.02;;;9.73;;
1759;SDS011;877;46.266;20.062;2023-11-19T01:40:21;14.95;;;9.82;;
1759;SDS011;877;46.266;20.062;2023-11-19T01:42:49;17.70;;;10.35;;
1759;SDS011;877;46.266;20.062;2023-11-19T01:45:21;14.95;;;9.82;;
1759;SDS011;877;46.266;20.062;2023-11-19T01:47:47;13.13;;;9.10;;
1759;SDS011;877;46.266;20.062;2023-11-19T01:50:13;14.52;;;8.88;;
1759;SDS011;877;46.266;20.062;2023-11-19T01:52:42;14.95;;;9.27;;
1759;SDS011;877;46.266;20.062;2023-11-19T01:55:08;12.35;;;7.88;;
1759;SDS011;877;46.266;20.062;2023-11-19T01:57:35;14.27;;;8.57;;
1759;SDS011;877;46.266;20.062;2023-11-19T02:00:05;15.85;;;9.50;;
1759;SDS011;877;46.266;20.062;2023-11-19T02:02:32;18.80;;;12.70;;
1759;SDS011;877;46.266;20.062;2023-11-19T02:05:00;21.63;;;11.35;;
1759;SDS011;877;46.266;20.062;2023-11-19T02:07:26;18.35;;;10.48;;
1759;SDS011;877;46.266;20.062;2023-11-19T02:09:52;19.73;;;10.82;;
1759;SDS011;877;46.266;20.062;2023-11-19T02:12:19;18.60;;;11.05;;
1759;SDS011;877;46.266;20.062;2023-11-19T02:14:46;21.52;;;11.57;;
1759;SDS011;877;46.266;20.062;2023-11-19T02:17:29;20.15;;;11.93;;
1759;SDS011;877;46.266;20.062;2023-11-19T02:20:05;18.55;;;11.43;;
1759;SDS011;877;46.266;20.062;2023-11-19T02:22:34;17.48;;;10.88;;
1759;SDS011;877;46.266;20.062;2023-11-19T02:25:02;19.40;;;10.52;;
1759;SDS011;877;46.266;20.062;2023-11-19T02:30:17;20.80;;;11.40;;
1759;SDS011;877;46.266;20.062;2023-11-19T02:32:43;19.25;;;12.13;;
1759;SDS011;877;46.266;20.062;2023-11-19T02:35:09;17.70;;;11.02;;
1759;SDS011;877;46.266;20.062;2023-11-19T02:37:36;22.13;;;13.30;;
1759;SDS011;877;46.266;20.062;2023-11-19T02:40:03;21.60;;;12.05;;
1759;SDS011;877;46.266;20.062;2023-11-19T02:42:31;18.50;;;11.95;;
1759;SDS011;877;46.266;20.062;2023-11-19T02:44:57;18.38;;;11.30;;
1759;SDS011;877;46.266;20.062;2023-11-19T02:47:25;17.98;;;13.15;;
1759;SDS011;877;46.266;20.062;2023-11-19T02:49:52;16.35;;;10.48;;
1759;SDS011;877;46.266;20.062;2023-11-19T02:52:18;17.00;;;11.90;;
1759;SDS011;877;46.266;20.062;2023-11-19T02:54:45;20.77;;;11.82;;
1759;SDS011;877;46.266;20.062;2023-11-19T02:57:12;19.40;;;11.35;;
1759;SDS011;877;46.266;20.062;2023-11-19T02:59:41;17.05;;;12.05;;
1759;SDS011;877;46.266;20.062;2023-11-19T03:02:09;18.52;;;11.00;;
1759;SDS011;877;46.266;20.062;2023-11-19T03:04:42;21.42;;;11.77;;
1759;SDS011;877;46.266;20.062;2023-11-19T03:07:09;16.63;;;11.25;;
1759;SDS011;877;46.266;20.062;2023-11-19T03:09:36;17.83;;;10.40;;
1759;SDS011;877;46.266;20.062;2023-11-19T03:12:05;21.08;;;11.38;;
1759;SDS011;877;46.266;20.062;2023-11-19T03:14:36;19.80;;;11.80;;
1759;SDS011;877;46.266;20.062;2023-11-19T03:17:02;17.20;;;10.50;;
1759;SDS011;877;46.266;20.062;2023-11-19T03:19:30;18.52;;;11.13;;
1759;SDS011;877;46.266;20.062;2023-11-19T03:21:56;20.50;;;11.82;;
1759;SDS011;877;46.266;20.062;2023-11-19T03:24:23;16.45;;;10.43;;
1759;SDS011;877;46.266;20.062;2023-11-19T03:26:51;20.33;;;12.63;;
1759;SDS011;877;46.266;20.062;2023-11-19T03:29:25;27.27;;;14.68;;
1759;SDS011;877;46.266;20.062;2023-11-19T03:31:52;25.85;;;11.77;;
1759;SDS011;877;46.266;20.062;2023-11-19T03:34:18;18.83;;;11.60;;
1759;SDS011;877;46.266;20.062;2023-11-19T03:36:45;16.60;;;10.75;;
1759;SDS011;877;46.266;20.062;2023-11-19T03:39:14;17.70;;;10.27;;
1759;SDS011;877;46.266;20.062;2023-11-19T03:41:41;22.20;;;11.25;;
1759;SDS011;877;46.266;20.062;2023-11-19T03:44:09;28.00;;;14.40;;
1759;SDS011;877;46.266;20.062;2023-11-19T03:46:35;21.25;;;14.38;;
1759;SDS011;877;46.266;20.062;2023-11-19T03:49:01;23.83;;;13.52;;
1759;SDS011;877;46.266;20.062;2023-11-19T03:51:30;22.05;;;12.27;;
1759;SDS011;877;46.266;20.062;2023-11-19T03:53:56;19.25;;;11.38;;
1759;SDS011;877;46.266;20.062;2023-11-19T03:56:23;21.85;;;11.40;;
1759;SDS011;877;46.266;20.062;2023-11-19T03:58:49;19.05;;;11.73;;
1759;SDS011;877;46.266;20.062;2023-11-19T04:01:17;19.00;;;11.32;;
1759;SDS011;877;46.266;20.062;2023-11-19T04:03:44;17.15;;;11.30;;
1759;SDS011;877;46.266;20.062;2023-11-19T04:06:10;17.08;;;10.57;;
1759;SDS011;877;46.266;20.062;2023-11-19T04:08:37;17.88;;;10.40;;
1759;SDS011;877;46.266;20.062;2023-11-19T04:11:03;19.25;;;11.48;;
1759;SDS011;877;46.266;20.062;2023-11-19T04:13:30;16.38;;;10.07;;
1759;SDS011;877;46.266;20.062;2023-11-19T04:15:56;16.13;;;10.57;;
1759;SDS011;877;46.266;20.062;2023-11-19T04:18:22;15.50;;;9.10;;
1759;SDS011;877;46.266;20.062;2023-11-19T04:20:48;17.70;;;10.75;;
1759;SDS011;877;46.266;20.062;2023-11-19T04:23:18;17.17;;;11.23;;
1759;SDS011;877;46.266;20.062;2023-11-19T04:25:44;17.50;;;11.30;;
1759;SDS011;877;46.266;20.062;2023-11-19T04:28:10;23.00;;;12.55;;
1759;SDS011;877;46.266;20.062;2023-11-19T04:30:36;17.30;;;11.05;;
1759;SDS011;877;46.266;20.062;2023-11-19T04:33:03;17.95;;;10.50;;
1759;SDS011;877;46.266;20.062;2023-11-19T04:35:29;18.88;;;11.85;;
1759;SDS011;877;46.266;20.062;2023-11-19T04:37:56;15.90;;;10.35;;
1759;SDS011;877;46.266;20.062;2023-11-19T04:40:22;18.77;;;10.05;;
1759;SDS011;877;46.266;20.062;2023-11-19T04:42:49;23.27;;;14.75;;
1759;SDS011;877;46.266;20.062;2023-11-19T04:45:15;22.85;;;13.95;;
1759;SDS011;877;46.266;20.062;2023-11-19T04:47:43;18.38;;;11.20;;
1759;SDS011;877;46.266;20.062;2023-11-19T04:50:09;20.73;;;13.07;;
1759;SDS011;877;46.266;20.062;2023-11-19T04:52:38;19.40;;;11.50;;
1759;SDS011;877;46.266;20.062;2023-11-19T04:55:10;21.55;;;11.05;;
1759;SDS011;877;46.266;20.062;2023-11-19T04:57:40;19.80;;;10.85;;
1759;SDS011;877;46.266;20.062;2023-11-19T05:00:06;20.63;;;11.75;;
1759;SDS011;877;46.266;20.062;2023-11-19T05:02:37;20.95;;;11.77;;
1759;SDS011;877;46.266;20.062;2023-11-19T05:05:04;19.15;;;11.70;;
1759;SDS011;877;46.266;20.062;2023-11-19T05:07:31;17.50;;;11.15;;
1759;SDS011;877;46.266;20.062;2023-11-19T05:09:57;18.90;;;11.35;;
1759;SDS011;877;46.266;20.062;2023-11-19T05:12:23;18.42;;;12.20;;
1759;SDS011;877;46.266;20.062;2023-11-19T05:14:51;24.90;;;13.43;;
1759;SDS011;877;46.266;20.062;2023-11-19T05:17:17;16.88;;;10.27;;
1759;SDS011;877;46.266;20.062;2023-11-19T05:19:44;16.88;;;10.95;;
1759;SDS011;877;46.266;20.062;2023-11-19T05:22:10;16.65;;;10.07;;
1759;SDS011;877;46.266;20.062;2023-11-19T05:24:37;18.33;;;11.13;;
1759;SDS011;877;46.266;20.062;2023-11-19T05:27:05;18.42;;;11.20;;
1759;SDS011;877;46.266;20.062;2023-11-19T05:29:32;17.67;;;10.80;;
1759;SDS011;877;46.266;20.062;2023-11-19T05:31:59;24.05;;;13.50;;
1759;SDS011;877;46.266;20.062;2023-11-19T05:34:25;24.70;;;16.50;;
1759;SDS011;877;46.266;20.062;2023-11-19T05:36:51;27.80;;;16.63;;
1759;SDS011;877;46.266;20.062;2023-11-19T05:39:17;38.80;;;25.90;;
1759;SDS011;877;46.266;20.062;2023-11-19T05:41:45;57.00;;;31.38;;
1759;SDS011;877;46.266;20.062;2023-11-19T05:44:11;37.05;;;24.20;;
1759;SDS011;877;46.266;20.062;2023-11-19T05:46:37;57.00;;;40.97;;
1759;SDS011;877;46.266;20.062;2023-11-19T05:49:07;69.53;;;47.83;;
1759;SDS011;877;46.266;20.062;2023-11-19T05:51:37;44.78;;;28.77;;
1759;SDS011;877;46.266;20.062;2023-11-19T05:54:04;34.30;;;24.67;;
1759;SDS011;877;46.266;20.062;2023-11-19T05:56:32;37.47;;;23.70;;
1759;SDS011;877;46.266;20.062;2023-11-19T05:58:59;36.88;;;23.63;;
1759;SDS011;877;46.266;20.062;2023-11-19T06:01:26;34.60;;;21.58;;
1759;SDS011;877;46.266;20.062;2023-11-19T06:03:54;32.90;;;18.58;;
1759;SDS011;877;46.266;20.062;2023-11-19T06:06:20;31.65;;;19.55;;
1759;SDS011;877;46.266;20.062;2023-11-19T06:08:46;33.67;;;21.98;;
1759;SDS011;877;46.266;20.062;2023-11-19T06:11:14;44.60;;;25.98;;
1759;SDS011;877;46.266;20.062;2023-11-19T06:13:43;37.30;;;23.70;;
1759;SDS011;877;46.266;20.062;2023-11-19T06:16:09;43.17;;;23.13;;
1759;SDS011;877;46.266;20.062;2023-11-19T06:18:36;31.88;;;20.65;;
1759;SDS011;877;46.266;20.062;2023-11-19T06:21:03;35.58;;;22.25;;
1759;SDS011;877;46.266;20.062;2023-11-19T06:23:29;34.35;;;21.25;;
1759;SDS011;877;46.266;20.062;2023-11-19T06:25:56;31.35;;;20.27;;
1759;SDS011;877;46.266;20.062;2023-11-19T06:28:22;32.60;;;22.30;;
1759;SDS011;877;46.266;20.062;2023-11-19T06:30:48;37.13;;;22.52;;
1759;SDS011;877;46.266;20.062;2023-11-19T06:33:14;35.42;;;19.90;;
1759;SDS011;877;46.266;20.062;2023-11-19T06:35:40;23.92;;;16.52;;
1759;SDS011;877;46.266;20.062;2023-11-19T06:38:07;24.00;;;16.80;;
1759;SDS011;877;46.266;20.062;2023-11-19T06:40:33;28.55;;;18.42;;
1759;SDS011;877;46.266;20.062;2023-11-19T06:43:03;46.95;;;27.75;;
1759;SDS011;877;46.266;20.062;2023-11-19T06:45:29;65.15;;;35.13;;
1759;SDS011;877;46.266;20.062;2023-11-19T06:47:55;132.82;;;62.65;;
1759;SDS011;877;46.266;20.062;2023-11-19T06:50:22;89.90;;;47.75;;
1759;SDS011;877;46.266;20.062;2023-11-19T06:52:49;55.53;;;28.95;;
1759;SDS011;877;46.266;20.062;2023-11-19T06:55:16;37.13;;;24.33;;
1759;SDS011;877;46.266;20.062;2023-11-19T06:57:42;40.22;;;21.17;;
1759;SDS011;877;46.266;20.062;2023-11-19T07:00:08;27.40;;;17.35;;
1759;SDS011;877;46.266;20.062;2023-11-19T07:02:36;28.60;;;17.52;;
1759;SDS011;877;46.266;20.062;2023-11-19T07:05:02;34.17;;;19.45;;
1759;SDS011;877;46.266;20.062;2023-11-19T07:07:33;34.83;;;18.20;;
1759;SDS011;877;46.266;20.062;2023-11-19T07:10:00;32.30;;;17.70;;
1759;SDS011;877;46.266;20.062;2023-11-19T07:12:27;26.45;;;17.13;;
1759;SDS011;877;46.266;20.062;2023-11-19T07:14:53;24.38;;;16.98;;
1759;SDS011;877;46.266;20.062;2023-11-19T07:17:20;23.50;;;16.73;;
1759;SDS011;877;46.266;20.062;2023-11-19T07:19:47;26.40;;;15.25;;
1759;SDS011;877;46.266;20.062;2023-11-19T07:22:16;31.15;;;20.38;;
1759;SDS011;877;46.266;20.062;2023-11-19T07:24:42;29.50;;;19.27;;
1759;SDS011;877;46.266;20.062;2023-11-19T07:27:08;31.40;;;21.60;;
1759;SDS011;877;46.266;20.062;2023-11-19T07:29:35;26.35;;;18.27;;
1759;SDS011;877;46.266;20.062;2023-11-19T07:32:01;29.17;;;18.60;;
1759;SDS011;877;46.266;20.062;2023-11-19T07:34:27;40.97;;;26.60;;
1759;SDS011;877;46.266;20.062;2023-11-19T07:36:54;35.72;;;23.92;;
1759;SDS011;877;46.266;20.062;2023-11-19T07:39:24;31.65;;;23.63;;
1759;SDS011;877;46.266;20.062;2023-11-19T07:41:50;30.15;;;21.30;;
1759;SDS011;877;46.266;20.062;2023-11-19T07:44:16;32.50;;;20.95;;
1759;SDS011;877;46.266;20.062;2023-11-19T07:46:44;31.83;;;21.35;;
1759;SDS011;877;46.266;20.062;2023-11-19T07:49:10;27.80;;;17.50;;
1759;SDS011;877;46.266;20.062;2023-11-19T07:51:37;24.55;;;16.35;;
1759;SDS011;877;46.266;20.062;2023-11-19T07:54:03;25.58;;;15.70;;
1759;SDS011;877;46.266;20.062;2023-11-19T07:56:32;25.48;;;16.80;;
1759;SDS011;877;46.266;20.062;2023-11-19T07:59:02;31.35;;;17.45;;
1759;SDS011;877;46.266;20.062;2023-11-19T08:01:28;28.73;;;17.42;;
1759;SDS011;877;46.266;20.062;2023-11-19T08:03:54;26.95;;;15.70;;
1759;SDS011;877;46.266;20.062;2023-11-19T08:06:23;20.90;;;14.07;;
1759;SDS011;877;46.266;20.062;2023-11-19T08:08:49;24.95;;;15.57;;
1759;SDS011;877;46.266;20.062;2023-11-19T08:11:16;27.20;;;15.55;;
1759;SDS011;877;46.266;20.062;2023-11-19T08:13:42;18.92;;;13.13;;
1759;SDS011;877;46.266;20.062;2023-11-19T08:16:08;17.35;;;12.27;;
1759;SDS011;877;46.266;20.062;2023-11-19T08:18:35;19.25;;;12.57;;
1759;SDS011;877;46.266;20.062;2023-11-19T08:21:02;17.23;;;11.90;;
1759;SDS011;877;46.266;20.062;2023-11-19T08:23:30;16.45;;;11.52;;
1759;SDS011;877;46.266;20.062;2023-11-19T08:25:56;18.48;;;12.35;;
1759;SDS011;877;46.266;20.062;2023-11-19T08:28:22;20.27;;;13.45;;
1759;SDS011;877;46.266;20.062;2023-11-19T08:30:48;22.15;;;13.35;;
1759;SDS011;877;46.266;20.062;2023-11-19T08:33:15;17.90;;;13.80;;
1759;SDS011;877;46.266;20.062;2023-11-19T08:35:43;16.33;;;11.60;;
1759;SDS011;877;46.266;20.062;2023-11-19T08:38:10;17.77;;;11.85;;
1759;SDS011;877;46.266;20.062;2023-11-19T08:40:36;19.55;;;13.35;;
1759;SDS011;877;46.266;20.062;2023-11-19T08:43:04;19.60;;;12.07;;
1759;SDS011;877;46.266;20.062;2023-11-19T08:45:32;20.33;;;13.10;;
1759;SDS011;877;46.266;20.062;2023-11-19T08:47:59;22.25;;;13.20;;
1759;SDS011;877;46.266;20.062;2023-11-19T08:50:25;21.98;;;13.35;;
1759;SDS011;877;46.266;20.062;2023-11-19T08:52:53;23.38;;;13.60;;
1759;SDS011;877;46.266;20.062;2023-11-19T08:55:19;19.65;;;11.30;;
1759;SDS011;877;46.266;20.062;2023-11-19T08:57:45;20.80;;;13.50;;
1759;SDS011;877;46.266;20.062;2023-11-19T09:00:12;17.05;;;8.45;;
1759;SDS011;877;46.266;20.062;2023-11-19T09:02:42;19.90;;;12.75;;
1759;SDS011;877;46.266;20.062;2023-11-19T09:05:11;17.42;;;12.98;;
1759;SDS011;877;46.266;20.062;2023-11-19T09:07:39;19.90;;;12.32;;
1759;SDS011;877;46.266;20.062;2023-11-19T09:10:06;18.20;;;12.18;;
1759;SDS011;877;46.266;20.062;2023-11-19T09:12:35;19.00;;;11.43;;
1759;SDS011;877;46.266;20.062;2023-11-19T09:15:02;21.88;;;13.43;;
1759;SDS011;877;46.266;20.062;2023-11-19T09:17:28;23.13;;;14.65;;
1759;SDS011;877;46.266;20.062;2023-11-19T09:19:56;22.50;;;13.75;;
1759;SDS011;877;46.266;20.062;2023-11-19T09:22:22;25.25;;;16.15;;
1759;SDS011;877;46.266;20.062;2023-11-19T09:24:48;24.67;;;14.43;;
1759;SDS011;877;46.266;20.062;2023-11-19T09:27:16;17.05;;;12.05;;
1759;SDS011;877;46.266;20.062;2023-11-19T09:29:43;17.20;;;12.20;;
1759;SDS011;877;46.266;20.062;2023-11-19T09:32:13;17.90;;;12.30;;
1759;SDS011;877;46.266;20.062;2023-11-19T09:34:39;18.20;;;12.68;;
1759;SDS011;877;46.266;20.062;2023-11-19T09:37:06;23.65;;;13.65;;
1759;SDS011;877;46.266;20.062;2023-11-19T09:39:34;18.45;;;11.60;;
1759;SDS011;877;46.266;20.062;2023-11-19T09:42:00;19.98;;;14.68;;
1759;SDS011;877;46.266;20.062;2023-11-19T09:44:26;23.73;;;15.68;;
1759;SDS011;877;46.266;20.062;2023-11-19T09:46:53;22.67;;;13.50;;
1759;SDS011;877;46.266;20.062;2023-11-19T09:49:21;20.83;;;14.05;;
1759;SDS011;877;46.266;20.062;2023-11-19T09:51:50;18.70;;;13.38;;
1759;SDS011;877;46.266;20.062;2023-11-19T09:54:17;22.98;;;17.33;;
1759;SDS011;877;46.266;20.062;2023-11-19T09:56:43;18.77;;;14.40;;
1759;SDS011;877;46.266;20.062;2023-11-19T09:59:10;17.50;;;11.20;;
1759;SDS011;877;46.266;20.062;2023-11-19T10:01:37;18.80;;;11.55;;
1759;SDS011;877;46.266;20.062;2023-11-19T10:04:06;17.13;;;10.45;;
1759;SDS011;877;46.266;20.062;2023-11-19T10:06:32;17.80;;;11.02;;
1759;SDS011;877;46.266;20.062;2023-11-19T10:08:58;16.63;;;10.55;;
1759;SDS011;877;46.266;20.062;2023-11-19T10:11:25;17.33;;;12.13;;
1759;SDS011;877;46.266;20.062;2023-11-19T10:13:51;19.63;;;11.02;;
1759;SDS011;877;46.266;20.062;2023-11-19T10:16:18;17.92;;;13.13;;
1759;SDS011;877;46.266;20.062;2023-11-19T10:18:48;18.90;;;12.63;;
1759;SDS011;877;46.266;20.062;2023-11-19T10:21:18;24.67;;;13.02;;
1759;SDS011;877;46.266;20.062;2023-11-19T10:23:50;17.00;;;11.40;;
1759;SDS011;877;46.266;20.062;2023-11-19T10:26:18;16.33;;;12.70;;
1759;SDS011;877;46.266;20.062;2023-11-19T10:28:48;20.08;;;12.38;;
1759;SDS011;877;46.266;20.062;2023-11-19T10:31:17;18.75;;;12.50;;
1759;SDS011;877;46.266;20.062;2023-11-19T10:33:44;17.42;;;12.07;;
1759;SDS011;877;46.266;20.062;2023-11-19T10:36:12;22.52;;;16.75;;
1759;SDS011;877;46.266;20.062;2023-11-19T10:38:39;18.60;;;12.45;;
1759;SDS011;877;46.266;20.062;2023-11-19T10:41:06;24.67;;;16.38;;
1759;SDS011;877;46.266;20.062;2023-11-19T10:43:45;23.08;;;17.25;;
1759;SDS011;877;46.266;20.062;2023-11-19T10:46:13;28.15;;;17.15;;
1759;SDS011;877;46.266;20.062;2023-11-19T10:48:40;25.88;;;14.70;;
1759;SDS011;877;46.266;20.062;2023-11-19T10:51:06;22.70;;;14.82;;
1759;SDS011;877;46.266;20.062;2023-11-19T10:53:37;24.27;;;13.73;;
1759;SDS011;877;46.266;20.062;2023-11-19T10:56:06;21.55;;;13.77;;
1759;SDS011;877;46.266;20.062;2023-11-19T10:58:35;22.05;;;15.30;;
1759;SDS011;877;46.266;20.062;2023-11-19T11:01:19;19.45;;;13.50;;
1759;SDS011;877;46.266;20.062;2023-11-19T11:03:48;20.15;;;13.27;;
1759;SDS011;877;46.266;20.062;2023-11-19T11:06:18;24.27;;;15.60;;
1759;SDS011;877;46.266;20.062;2023-11-19T11:08:45;22.92;;;14.80;;
1759;SDS011;877;46.266;20.062;2023-11-19T11:11:11;19.52;;;11.98;;
1759;SDS011;877;46.266;20.062;2023-11-19T11:13:40;16.08;;;11.10;;
1759;SDS011;877;46.266;20.062;2023-11-19T11:16:07;19.20;;;13.60;;
1759;SDS011;877;46.266;20.062;2023-11-19T11:18:34;16.00;;;11.18;;
1759;SDS011;877;46.266;20.062;2023-11-19T11:21:03;15.65;;;10.57;;
1759;SDS011;877;46.266;20.062;2023-11-19T11:31:00;14.93;;;9.77;;
1759;SDS011;877;46.266;20.062;2023-11-19T11:36:18;14.85;;;9.65;;
1759;SDS011;877;46.266;20.062;2023-11-19T11:38:45;20.60;;;9.73;;
1759;SDS011;877;46.266;20.062;2023-11-19T11:41:20;14.88;;;10.73;;
1759;SDS011;877;46.266;20.062;2023-11-19T11:43:54;20.25;;;14.10;;
1759;SDS011;877;46.266;20.062;2023-11-19T11:48:59;17.45;;;10.63;;
1759;SDS011;877;46.266;20.062;2023-11-19T11:54:11;18.98;;;13.48;;
1759;SDS011;877;46.266;20.062;2023-11-19T11:57:01;14.60;;;9.98;;
1759;SDS011;877;46.266;20.062;2023-11-19T11:59:31;16.02;;;10.60;;
1759;SDS011;877;46.266;20.062;2023-11-19T12:01:58;18.05;;;10.98;;
1759;SDS011;877;46.266;20.062;2023-11-19T12:04:27;16.23;;;10.63;;
1759;SDS011;877;46.266;20.062;2023-11-19T12:07:12;15.32;;;10.35;;
1759;SDS011;877;46.266;20.062;2023-11-19T12:09:40;16.80;;;10.63;;
1759;SDS011;877;46.266;20.062;2023-11-19T12:12:27;14.40;;;10.10;;
1759;SDS011;877;46.266;20.062;2023-11-19T12:20:03;14.57;;;8.52;;
1759;SDS011;877;46.266;20.062;2023-11-19T12:22:40;12.65;;;9.13;;
1759;SDS011;877;46.266;20.062;2023-11-19T12:25:07;115.63;;;41.83;;
1759;SDS011;877;46.266;20.062;2023-11-19T12:27:39;17.80;;;11.48;;
1759;SDS011;877;46.266;20.062;2023-11-19T12:30:05;13.60;;;11.20;;
1759;SDS011;877;46.266;20.062;2023-11-19T12:32:41;12.77;;;9.10;;
1759;SDS011;877;46.266;20.062;2023-11-19T12:35:08;15.20;;;9.05;;
1759;SDS011;877;46.266;20.062;2023-11-19T12:40:16;14.77;;;9.75;;
1759;SDS011;877;46.266;20.062;2023-11-19T12:42:46;10.27;;;7.82;;
1759;SDS011;877;46.266;20.062;2023-11-19T12:45:13;15.98;;;9.73;;
1759;SDS011;877;46.266;20.062;2023-11-19T12:47:40;14.30;;;9.43;;
1759;SDS011;877;46.266;20.062;2023-11-19T12:50:07;17.02;;;11.57;;
1759;SDS011;877;46.266;20.062;2023-11-19T12:52:37;16.95;;;12.25;;
1759;SDS011;877;46.266;20.062;2023-11-19T12:55:04;15.60;;;10.38;;
1759;SDS011;877;46.266;20.062;2023-11-19T12:57:41;14.15;;;10.57;;
1759;SDS011;877;46.266;20.062;2023-11-19T13:00:07;13.20;;;9.70;;
1759;SDS011;877;46.266;20.062;2023-11-19T13:05:27;16.10;;;9.82;;
1759;SDS011;877;46.266;20.062;2023-11-19T13:10:30;16.90;;;11.32;;
1759;SDS011;877;46.266;20.062;2023-11-19T13:13:06;18.10;;;10.40;;
1759;SDS011;877;46.266;20.062;2023-11-19T13:15:33;13.70;;;9.88;;
1759;SDS011;877;46.266;20.062;2023-11-19T13:18:00;14.40;;;10.23;;
1759;SDS011;877;46.266;20.062;2023-11-19T13:20:27;18.67;;;12.30;;
1759;SDS011;877;46.266;20.062;2023-11-19T13:23:00;18.50;;;11.30;;
1759;SDS011;877;46.266;20.062;2023-11-19T13:25:27;17.60;;;10.07;;
1759;SDS011;877;46.266;20.062;2023-11-19T13:27:53;18.83;;;11.75;;
1759;SDS011;877;46.266;20.062;2023-11-19T13:30:20;21.85;;;14.13;;
1759;SDS011;877;46.266;20.062;2023-11-19T13:32:47;24.98;;;14.73;;
1759;SDS011;877;46.266;20.062;2023-11-19T13:35:14;37.85;;;19.45;;
1759;SDS011;877;46.266;20.062;2023-11-19T13:37:40;33.78;;;16.15;;
1759;SDS011;877;46.266;20.062;2023-11-19T13:40:07;20.02;;;11.80;;
1759;SDS011;877;46.266;20.062;2023-11-19T13:42:35;16.20;;;11.15;;
1759;SDS011;877;46.266;20.062;2023-11-19T13:45:02;22.25;;;11.60;;
1759;SDS011;877;46.266;20.062;2023-11-19T13:47:28;15.95;;;10.20;;
1759;SDS011;877;46.266;20.062;2023-11-19T13:49:54;18.75;;;11.82;;
1759;SDS011;877;46.266;20.062;2023-11-19T13:52:21;17.10;;;10.32;;
1759;SDS011;877;46.266;20.062;2023-11-19T13:54:47;15.13;;;10.95;;
1759;SDS011;877;46.266;20.062;2023-11-19T13:57:13;18.52;;;10.30;;
1759;SDS011;877;46.266;20.062;2023-11-19T13:59:39;16.48;;;11.43;;
1759;SDS011;877;46.266;20.062;2023-11-19T14:02:06;13.95;;;9.63;;
1759;SDS011;877;46.266;20.062;2023-11-19T14:04:33;12.52;;;9.82;;
1759;SDS011;877;46.266;20.062;2023-11-19T14:06:59;13.77;;;9.88;;
1759;SDS011;877;46.266;20.062;2023-11-19T14:09:25;15.05;;;10.77;;
1759;SDS011;877;46.266;20.062;2023-11-19T14:11:52;13.40;;;9.53;;
1759;SDS011;877;46.266;20.062;2023-11-19T14:14:19;11.57;;;7.70;;
1759;SDS011;877;46.266;20.062;2023-11-19T14:16:45;11.80;;;7.82;;
1759;SDS011;877;46.266;20.062;2023-11-19T14:19:11;11.63;;;8.10;;
1759;SDS011;877;46.266;20.062;2023-11-19T14:21:40;11.52;;;8.75;;
1759;SDS011;877;46.266;20.062;2023-11-19T14:24:06;16.75;;;11.00;;
1759;SDS011;877;46.266;20.062;2023-11-19T14:26:32;17.77;;;10.20;;
1759;SDS011;877;46.266;20.062;2023-11-19T14:28:58;14.07;;;9.40;;
1759;SDS011;877;46.266;20.062;2023-11-19T14:31:27;21.80;;;12.93;;
1759;SDS011;877;46.266;20.062;2023-11-19T14:33:54;17.15;;;10.90;;
1759;SDS011;877;46.266;20.062;2023-11-19T14:36:20;31.02;;;17.67;;
1759;SDS011;877;46.266;20.062;2023-11-19T14:38:46;21.02;;;13.60;;
1759;SDS011;877;46.266;20.062;2023-11-19T14:41:13;29.13;;;21.98;;
1759;SDS011;877;46.266;20.062;2023-11-19T14:43:39;22.02;;;14.10;;
1759;SDS011;877;46.266;20.062;2023-11-19T14:46:05;21.27;;;14.95;;
1759;SDS011;877;46.266;20.062;2023-11-19T14:48:32;23.45;;;14.50;;
1759;SDS011;877;46.266;20.062;2023-11-19T14:50:58;21.98;;;13.32;;
1759;SDS011;877;46.266;20.062;2023-11-19T14:53:24;22.30;;;14.13;;
1759;SDS011;877;46.266;20.062;2023-11-19T14:55:50;21.85;;;13.90;;
1759;SDS011;877;46.266;20.062;2023-11-19T14:58:17;18.30;;;12.50;;
1759;SDS011;877;46.266;20.062;2023-11-19T15:00:43;17.95;;;13.48;;
1759;SDS011;877;46.266;20.062;2023-11-19T15:03:10;21.30;;;13.55;;
1759;SDS011;877;46.266;20.062;2023-11-19T15:05:38;23.20;;;13.45;;
1759;SDS011;877;46.266;20.062;2023-11-19T15:08:04;23.42;;;14.45;;
1759;SDS011;877;46.266;20.062;2023-11-19T15:10:30;23.95;;;14.85;;
1759;SDS011;877;46.266;20.062;2023-11-19T15:12:56;22.05;;;15.10;;
1759;SDS011;877;46.266;20.062;2023-11-19T15:15:22;79.47;;;51.50;;
1759;SDS011;877;46.266;20.062;2023-11-19T15:17:49;98.65;;;57.15;;
1759;SDS011;877;46.266;20.062;2023-11-19T15:20:16;21.25;;;15.48;;
1759;SDS011;877;46.266;20.062;2023-11-19T15:22:43;26.17;;;17.67;;
1759;SDS011;877;46.266;20.062;2023-11-19T15:25:09;20.38;;;14.57;;